createdAt,value
2024-01-16T00:00:36.979Z,2.30
2024-01-16T00:04:41.968Z,2.58
2024-01-16T00:08:45.453Z,2.42
2024-01-16T00:12:48.470Z,2.42
2024-01-16T00:16:51.370Z,2.28
2024-01-16T00:20:54.323Z,2.20
2024-01-16T00:24:57.411Z,2.17
2024-01-16T00:29:00.303Z,2.70
2024-01-16T00:33:04.145Z,2.38
2024-01-16T00:37:07.241Z,1.92
2024-01-16T00:41:10.466Z,2.35
2024-01-16T00:45:13.521Z,2.33
2024-01-16T00:49:18.982Z,2.10
2024-01-16T00:53:23.555Z,2.30
2024-01-16T00:57:26.564Z,2.22
2024-01-16T01:01:29.745Z,2.33
2024-01-16T01:05:32.769Z,2.20
2024-01-16T01:09:35.740Z,2.38
2024-01-16T01:13:38.610Z,1.85
2024-01-16T01:17:42.166Z,2.15
2024-01-16T01:21:45.032Z,1.70
2024-01-16T01:25:48.787Z,1.88
2024-01-16T01:29:52.481Z,2.25
2024-01-16T01:33:55.427Z,2.30
2024-01-16T01:37:58.460Z,1.92
2024-01-16T01:42:01.295Z,1.90
2024-01-16T01:46:11.785Z,1.77
2024-01-16T01:50:15.507Z,2.05
2024-01-16T01:54:20.307Z,1.83
2024-01-16T01:58:24.460Z,2.00
2024-01-16T02:02:28.161Z,1.95
2024-01-16T02:06:31.396Z,2.30
2024-01-16T02:10:35.778Z,2.05
2024-01-16T02:14:38.795Z,1.80
2024-01-16T02:18:41.770Z,1.92
2024-01-16T02:22:49.638Z,2.00
2024-01-16T02:26:53.098Z,1.77
2024-01-16T02:30:56.107Z,2.03
2024-01-16T02:34:59.741Z,1.77
2024-01-16T02:39:02.888Z,1.73
2024-01-16T02:43:05.688Z,1.48
2024-01-16T02:47:08.738Z,1.77
2024-01-16T02:51:12.060Z,1.70
2024-01-16T02:55:15.750Z,1.75
2024-01-16T02:59:18.680Z,2.13
2024-01-16T03:03:21.765Z,1.90
2024-01-16T03:07:24.976Z,2.03
2024-01-16T03:11:29.607Z,1.90
2024-01-16T03:15:33.193Z,2.13
2024-01-16T03:19:36.065Z,2.10
2024-01-16T03:23:39.066Z,2.30
2024-01-16T03:27:41.908Z,2.20
2024-01-16T03:31:44.734Z,1.73
2024-01-16T03:35:48.821Z,1.90
2024-01-16T03:39:51.780Z,1.90
2024-01-16T03:43:57.772Z,1.92
2024-01-16T03:48:01.016Z,2.00
2024-01-16T03:52:04.221Z,2.38
2024-01-16T03:56:07.204Z,2.03
2024-01-16T04:00:13.656Z,1.90
2024-01-16T04:04:17.579Z,1.98
2024-01-16T04:08:20.637Z,2.17
2024-01-16T04:12:23.613Z,2.20
2024-01-16T04:16:26.520Z,2.10
2024-01-16T04:20:29.429Z,1.98
2024-01-16T04:24:32.545Z,1.98
2024-01-16T04:28:35.694Z,1.95
2024-01-16T04:32:38.687Z,1.92
2024-01-16T04:36:41.658Z,2.30
2024-01-16T04:40:44.831Z,1.60
2024-01-16T04:44:47.756Z,2.35
2024-01-16T04:48:51.455Z,1.73
2024-01-16T04:52:55.442Z,2.17
2024-01-16T04:56:58.392Z,1.95
2024-01-16T05:01:01.482Z,2.25
2024-01-16T05:05:06.912Z,2.20
2024-01-16T05:09:13.415Z,2.03
2024-01-16T05:13:16.408Z,2.10
2024-01-16T05:17:19.625Z,2.20
2024-01-16T05:21:22.561Z,2.42
2024-01-16T05:25:25.990Z,2.33
2024-01-16T05:29:29.309Z,2.30
2024-01-16T05:33:33.682Z,2.33
2024-01-16T05:37:37.191Z,2.60
2024-01-16T05:41:40.115Z,2.08
2024-01-16T05:45:43.001Z,2.13
2024-01-16T05:49:45.878Z,2.22
2024-01-16T05:53:49.606Z,2.40
2024-01-16T05:57:52.615Z,2.00
2024-01-16T06:01:55.612Z,2.20
2024-01-16T06:05:59.631Z,2.30
2024-01-16T06:10:30.944Z,2.30
2024-01-16T06:14:34.348Z,2.20
2024-01-16T06:18:37.810Z,3.15
2024-01-16T06:22:41.104Z,2.40
2024-01-16T06:26:44.173Z,2.15
2024-01-16T06:30:47.146Z,2.33
2024-01-16T06:34:50.212Z,2.47
2024-01-16T06:38:53.788Z,2.90
2024-01-16T06:42:56.669Z,2.95
2024-01-16T06:46:59.475Z,4.05
2024-01-16T06:51:02.459Z,5.82
2024-01-16T06:55:05.680Z,6.15
2024-01-16T06:59:11.297Z,5.10
2024-01-16T07:03:15.178Z,4.78
2024-01-16T07:07:18.069Z,3.28
2024-01-16T07:11:24.969Z,3.85
2024-01-16T07:15:29.229Z,4.22
2024-01-16T07:19:32.454Z,4.70
2024-01-16T07:23:35.606Z,4.35
2024-01-16T07:27:39.169Z,4.88
2024-01-16T07:31:42.614Z,5.45
2024-01-16T07:35:49.270Z,3.83
2024-01-16T07:43:55.205Z,4.50
2024-01-16T07:47:58.080Z,7.45
2024-01-16T07:52:01.106Z,8.15
2024-01-16T07:56:04.530Z,7.05
2024-01-16T08:00:12.880Z,6.78
2024-01-16T08:04:15.762Z,14.60
2024-01-16T08:08:18.952Z,20.60
2024-01-16T08:12:21.855Z,58.00
2024-01-16T08:16:25.114Z,12.90
2024-01-16T08:20:28.062Z,10.15
2024-01-16T08:24:30.932Z,9.27
2024-01-16T08:28:33.778Z,16.75
2024-01-16T08:32:36.734Z,10.60
2024-01-16T08:36:39.537Z,12.82
2024-01-16T08:40:42.354Z,9.65
2024-01-16T08:44:45.367Z,9.48
2024-01-16T08:48:48.594Z,8.43
2024-01-16T08:52:51.673Z,6.82
2024-01-16T08:56:54.562Z,6.70
2024-01-16T09:00:57.482Z,6.50
2024-01-16T09:05:00.479Z,7.13
2024-01-16T09:09:05.954Z,7.20
2024-01-16T09:13:08.864Z,6.70
2024-01-16T09:17:11.719Z,6.82
2024-01-16T09:21:15.542Z,6.97
2024-01-16T09:25:18.507Z,6.72
2024-01-16T09:29:22.782Z,7.60
2024-01-16T09:33:26.991Z,6.90
2024-01-16T09:37:30.127Z,6.32
2024-01-16T09:41:34.195Z,6.50
2024-01-16T09:45:39.021Z,4.85
2024-01-16T09:49:43.523Z,5.03
2024-01-16T09:53:46.520Z,5.50
2024-01-16T09:57:53.379Z,4.75
2024-01-16T10:01:57.353Z,5.07
2024-01-16T10:06:01.575Z,5.57
2024-01-16T10:10:05.534Z,4.28
2024-01-16T10:14:09.654Z,4.20
2024-01-16T10:18:29.366Z,4.57
2024-01-16T10:22:32.481Z,4.88
2024-01-16T10:26:35.422Z,4.22
2024-01-16T10:30:38.531Z,4.85
2024-01-16T10:34:41.531Z,4.43
2024-01-16T10:38:45.927Z,4.95
2024-01-16T10:43:02.538Z,5.05
2024-01-16T10:47:17.421Z,4.55
2024-01-16T10:51:21.490Z,3.47
2024-01-16T10:55:24.961Z,3.65
2024-01-16T10:59:36.869Z,4.38
2024-01-16T11:03:50.004Z,3.88
2024-01-16T11:07:56.362Z,3.55
2024-01-16T11:12:00.357Z,3.15
2024-01-16T11:16:06.641Z,3.85
2024-01-16T11:20:22.185Z,3.50
2024-01-16T11:24:34.186Z,3.00
2024-01-16T11:28:36.935Z,3.42
2024-01-16T11:32:42.409Z,3.45
2024-01-16T11:36:56.647Z,3.00
2024-01-16T11:40:59.983Z,3.45
2024-01-16T11:45:03.115Z,3.75
2024-01-16T11:49:06.312Z,3.30
2024-01-16T11:53:09.940Z,2.70
2024-01-16T11:57:49.633Z,2.22
2024-01-16T12:01:54.199Z,2.63
2024-01-16T12:06:01.408Z,2.58
2024-01-16T12:10:04.646Z,2.75
2024-01-16T12:14:07.434Z,2.67
2024-01-16T12:18:19.680Z,2.25
2024-01-16T12:22:29.767Z,2.60
2024-01-16T12:26:33.411Z,2.42
2024-01-16T12:30:37.930Z,2.13
2024-01-16T12:34:50.834Z,2.63
2024-01-16T12:38:57.740Z,2.50
2024-01-16T12:43:01.021Z,2.70
2024-01-16T12:47:04.266Z,2.40
2024-01-16T12:51:08.279Z,2.47
2024-01-16T12:55:11.322Z,2.40
2024-01-16T12:59:14.918Z,2.10
2024-01-16T13:03:19.068Z,3.33
2024-01-16T13:07:22.161Z,3.95
2024-01-16T13:11:35.219Z,3.45
2024-01-16T13:15:42.247Z,2.90
2024-01-16T13:19:45.138Z,3.40
2024-01-16T13:23:48.054Z,3.10
2024-01-16T13:27:50.984Z,2.60
2024-01-16T13:31:56.750Z,3.38
2024-01-16T13:35:59.699Z,3.73
2024-01-16T13:40:04.387Z,2.90
2024-01-16T13:44:07.620Z,2.60
2024-01-16T13:48:10.980Z,2.03
2024-01-16T13:52:14.116Z,2.40
2024-01-16T13:56:18.549Z,2.55
2024-01-16T14:00:24.375Z,2.72
2024-01-16T14:04:27.246Z,3.05
2024-01-16T14:08:30.220Z,5.32
2024-01-16T14:12:33.108Z,4.38
2024-01-16T14:16:48.015Z,3.60
2024-01-16T14:20:54.849Z,3.60
2024-01-16T14:24:57.667Z,4.63
2024-01-16T14:29:00.425Z,3.45
2024-01-16T14:33:03.563Z,3.30
2024-01-16T14:37:06.866Z,3.05
2024-01-16T14:41:10.094Z,3.67
2024-01-16T14:45:12.954Z,3.28
2024-01-16T14:49:16.110Z,3.15
2024-01-16T14:53:20.344Z,3.85
2024-01-16T14:57:23.076Z,5.85
2024-01-16T15:01:26.030Z,13.55
2024-01-16T15:05:29.393Z,10.20
2024-01-16T15:09:35.527Z,5.57
2024-01-16T15:13:38.477Z,2.72
2024-01-16T15:17:42.735Z,3.55
2024-01-16T15:21:46.141Z,2.70
2024-01-16T15:25:48.951Z,3.13
2024-01-16T15:29:51.978Z,3.10
2024-01-16T15:33:56.350Z,2.97
2024-01-16T15:37:59.206Z,2.90
2024-01-16T15:42:03.163Z,3.50
2024-01-16T15:46:07.083Z,3.00
2024-01-16T15:50:11.603Z,5.00
2024-01-16T15:54:14.650Z,5.28
2024-01-16T15:58:17.727Z,5.40
2024-01-16T16:02:20.588Z,11.63
2024-01-16T16:06:23.837Z,9.93
2024-01-16T16:10:28.067Z,6.75
2024-01-16T16:14:36.281Z,6.75
2024-01-16T16:18:39.244Z,6.80
2024-01-16T16:22:42.210Z,6.60
2024-01-16T16:26:48.172Z,11.43
2024-01-16T16:30:51.320Z,13.77
2024-01-16T16:34:54.642Z,10.52
2024-01-16T16:38:58.973Z,7.13
2024-01-16T16:43:05.502Z,6.03
2024-01-16T16:47:13.381Z,4.03
2024-01-16T16:51:21.065Z,5.15
2024-01-16T16:55:24.376Z,3.90
2024-01-16T16:59:27.229Z,5.38
2024-01-16T17:03:30.251Z,4.80
2024-01-16T17:07:37.633Z,4.38
2024-01-16T17:11:40.934Z,4.88
2024-01-16T17:15:46.095Z,4.25
2024-01-16T17:19:49.154Z,4.78
2024-01-16T17:23:55.724Z,4.63
2024-01-16T17:28:01.181Z,3.53
2024-01-16T17:32:04.478Z,4.22
2024-01-16T17:36:11.504Z,4.30
2024-01-16T17:40:14.478Z,3.53
2024-01-16T17:44:19.280Z,3.50
2024-01-16T17:48:22.788Z,3.17
2024-01-16T17:52:26.039Z,4.47
2024-01-16T17:56:28.966Z,3.80
2024-01-16T18:00:33.127Z,3.38
2024-01-16T18:04:40.463Z,4.97
2024-01-16T18:08:43.764Z,4.43
2024-01-16T18:12:54.273Z,5.47
2024-01-16T18:16:57.165Z,4.97
2024-01-16T18:21:00.656Z,5.03
2024-01-16T18:25:06.986Z,5.43
2024-01-16T18:29:13.382Z,5.03
2024-01-16T18:33:19.703Z,3.88
2024-01-16T18:37:23.036Z,3.38
2024-01-16T18:41:25.920Z,3.70
2024-01-16T18:45:30.353Z,3.03
2024-01-16T18:49:34.974Z,2.70
2024-01-16T18:53:37.938Z,2.90
2024-01-16T18:57:44.672Z,3.70
2024-01-16T19:01:47.620Z,4.35
2024-01-16T19:05:54.046Z,3.38
2024-01-16T19:10:01.990Z,2.78
2024-01-16T19:14:13.952Z,2.90
2024-01-16T19:18:19.465Z,3.67
2024-01-16T19:22:28.163Z,3.67
2024-01-16T19:26:38.518Z,3.03
2024-01-16T19:30:44.895Z,3.13
2024-01-16T19:34:48.017Z,3.88
2024-01-16T19:38:50.884Z,3.15
2024-01-16T19:43:05.626Z,2.72
2024-01-16T19:47:11.327Z,3.50
2024-01-16T19:51:15.557Z,3.53
2024-01-16T19:55:20.503Z,5.53
2024-01-16T19:59:26.436Z,3.38
2024-01-16T20:03:38.656Z,2.45
2024-01-16T20:07:42.308Z,2.85
2024-01-16T20:11:47.643Z,3.03
2024-01-16T20:15:53.085Z,2.03
2024-01-16T20:19:56.014Z,2.10
2024-01-16T20:23:59.905Z,1.98
2024-01-16T20:28:06.640Z,2.15
2024-01-16T20:36:19.346Z,3.47
2024-01-16T20:44:27.947Z,5.18
2024-01-16T20:48:35.452Z,3.53
2024-01-16T20:57:21.206Z,3.10
2024-01-16T21:01:24.324Z,3.20
2024-01-16T21:05:27.259Z,2.40
2024-01-16T21:09:30.850Z,2.75
2024-01-16T21:13:34.096Z,3.35
2024-01-16T21:17:39.692Z,3.42
2024-01-16T21:21:56.452Z,2.80
2024-01-16T21:25:59.656Z,2.80
2024-01-16T21:30:05.085Z,2.65
2024-01-16T21:34:08.299Z,3.13
2024-01-16T21:38:12.369Z,4.65
2024-01-16T21:42:15.204Z,3.22
2024-01-16T21:46:18.626Z,6.10
2024-01-16T21:50:32.996Z,5.03
2024-01-16T21:54:40.452Z,3.88
2024-01-16T21:58:43.385Z,3.10
2024-01-16T22:02:46.552Z,5.45
2024-01-16T22:06:49.493Z,7.38
2024-01-16T22:10:52.714Z,5.47
2024-01-16T22:14:57.283Z,4.78
2024-01-16T22:19:01.452Z,6.68
2024-01-16T22:23:04.648Z,7.40
2024-01-16T22:27:07.669Z,7.93
2024-01-16T22:31:10.781Z,7.80
2024-01-16T22:35:13.825Z,7.43
2024-01-16T22:39:17.391Z,6.95
2024-01-16T22:43:20.420Z,6.47
2024-01-16T22:47:23.469Z,6.63
2024-01-16T22:51:26.493Z,8.20
2024-01-16T22:55:29.476Z,8.45
2024-01-16T22:59:32.498Z,8.05
2024-01-16T23:03:35.494Z,8.57
2024-01-16T23:07:38.918Z,8.55
2024-01-16T23:11:42.140Z,7.70
2024-01-16T23:15:46.619Z,9.75
2024-01-16T23:19:49.893Z,8.90
2024-01-16T23:23:53.337Z,7.50
2024-01-16T23:27:56.304Z,10.25
2024-01-16T23:31:59.456Z,11.98
2024-01-16T23:36:03.148Z,12.57
2024-01-16T23:40:06.592Z,9.55
2024-01-16T23:44:09.765Z,10.40
2024-01-16T23:48:12.940Z,10.07
2024-01-16T23:52:16.291Z,10.77
2024-01-16T23:56:19.287Z,9.65
